Lake Charles, LA

7:49 AM CDT on March 28, 2015 (GMT -0500)
Chennault International | | Change Station
CLOSE
Current Station
Airport
Location: Lake Charles,
Elevation: 13 ft
Nearby Weather Stations
Active Advisory: Flood Warning

Elev 13 ft 30.21 °N, 93.14 °W | Updated 54 minutes ago

Clear
Clear
46 °F
Feels Like 46 °F
N
0
Wind Variable Wind from North

Today
High -- | Low -- °F
--% Chance of Precip.
Yesterday
High -- | Low -- °F
Precip. -- in
7:07 AM 7:29 PM
Waxing Gibbous, 62% visible
Pressure 30.18 in
Visibility 10.0 miles
Clouds Clear
Dew Point 45 °F
Humidity 93%
Rainfall 0.00 in
Snow Depth Not available.
UV 0 out of 12
Pollen 10.00 out of 12
Air Quality Not available.
Flu Activity Not available.
METAR KCWF 281155Z 00000KT 10SM SKC 08/07 A3018

More Conditions Fewer Conditions

Pressure 30.18 in
Visibility 10.0 miles
Clouds Clear
Dew Point 45 °F
Humidity 93%
Rainfall 0.00 in
Snow Depth Not available.
UV 0 out of 12
Pollen 10.00 out of 12
Air Quality Not available.
Flu Activity Not available.
METAR KCWF 281155Z 00000KT 10SM SKC 08/07 A3018

More Conditions Fewer Conditions

10-Day Weather Forecast

Almanac

Astronomy

Mar. 28, 2015 Rise Set
Actual Time
Civil Twilight
Nautical Twilight
Astronomical Twilight
Moon
Length of Visible Light
Length of Day
Tomorrow will be .
, % of the Moon is Illuminated

Today's Extremes

State Highs State Lows

Community

WunderPhotos

Upload Photos

1,808,966 photos uploaded!

WunderBlogs® & News

Nearby

Air Quality

  Air Quality AQ Index Pollutant
Not available.

Snow Depth

Station Depth Elevation

Earthquake Activity

City Distance Mag. Time & Date
Minimum magnitude displayed is 2.5.

Coastal Water Temperatures

Place Temperature

Stations

Nearby Weather Stations

Station Location Temp. Windchill Dew Point Humidity Wind Precip. Elev Updated Type
                   
Flood Warning
Statement as of 8:06 PM CDT on March 27, 2015

The Flood Warning continues for
the Sabine River near Deweyville.
* Until further notice... or until the warning is cancelled.
* At 6:45 PM Friday the stage was 25.6 feet.
* Minor flooding is occurring and moderate flooding is forecast.
* Flood stage is 24.0 feet.
* Forecast... the river will continue rising to near 26.0 feet by
Monday evening then begin falling.
* Impact... at stages near 26.0 feet... moderate lowland flooding will
occur. The lowest homes between Deweyville and the river begin to
flood, especially in the Indian Lakes and River Oaks sections.
Low-lying roads and a few homes in southwestern Beauregard Parish
have some flooding.


Lat... Lon 3061 9376 3031 9381 3008 9378 3005 9367
      3044 9364 3057 9363